Akra, North Dakota
Current Conditions -  °F | °C
As of 1:55 PM on Tuesday 21 Oct 2014 (Local Time) from K2C8 Reporting Station
Clear Clear  
Wind Chill: 59°   Ceiling: Unl
Heat Index: 59°   Visibility: 10mi
Dew Point: 41°   Wind: 21mph
Humidity: 51%   Direction: 150°SSE
Pressure: 29.88"   Gusts: 28mph
Location:  48.8218°N, 97.697°W
Report Text: K2C8 211855Z AUTO 15018G24KT 120V180 10SM CLR 15/05 A2988 RMK AO2
Loading
Personal Weather Stations






























Interactive Weather Map New forecast layout! Learn more

10-Day Weather Forecast

Advertisements
Track Severe Weather on mobile